createdAt,value
2023-04-04T00:01:04.440Z,3.40
2023-04-04T00:03:31.967Z,3.90
2023-04-04T00:06:02.060Z,3.83
2023-04-04T00:08:30.376Z,3.50
2023-04-04T00:10:58.801Z,4.30
2023-04-04T00:13:29.331Z,3.80
2023-04-04T00:15:57.438Z,3.30
2023-04-04T00:18:24.801Z,4.17
2023-04-04T00:20:52.106Z,3.10
2023-04-04T00:23:20.038Z,3.10
2023-04-04T00:25:54.056Z,3.70
2023-04-04T00:28:21.828Z,3.60
2023-04-04T00:30:49.389Z,3.70
2023-04-04T00:33:19.362Z,3.50
2023-04-04T00:35:49.067Z,4.00
2023-04-04T00:38:17.657Z,3.60
2023-04-04T00:40:47.962Z,3.17
2023-04-04T00:43:17.017Z,3.60
2023-04-04T00:45:44.647Z,3.47
2023-04-04T00:48:12.775Z,4.00
2023-04-04T00:50:40.396Z,3.77
2023-04-04T00:53:08.578Z,3.70
2023-04-04T00:55:39.280Z,4.10
2023-04-04T00:58:07.547Z,4.50
2023-04-04T01:00:36.535Z,3.90
2023-04-04T01:03:06.835Z,3.50
2023-04-04T01:05:35.728Z,3.97
2023-04-04T01:08:03.907Z,4.57
2023-04-04T01:10:32.490Z,4.40
2023-04-04T01:13:01.767Z,4.67
2023-04-04T01:15:30.124Z,4.13
2023-04-04T01:17:59.542Z,4.67
2023-04-04T01:20:28.449Z,4.47
2023-04-04T01:22:59.381Z,4.60
2023-04-04T01:25:32.403Z,4.70
2023-04-04T01:28:04.209Z,4.87
2023-04-04T01:30:35.602Z,4.30
2023-04-04T01:33:29.506Z,4.00
2023-04-04T01:36:10.503Z,4.73
2023-04-04T01:38:58.031Z,5.03
2023-04-04T01:41:28.397Z,4.70
2023-04-04T01:44:00.546Z,5.13
2023-04-04T01:46:30.944Z,4.87
2023-04-04T01:48:59.685Z,4.17
2023-04-04T01:51:32.062Z,4.63
2023-04-04T01:53:59.408Z,4.47
2023-04-04T01:56:29.065Z,4.70
2023-04-04T01:58:56.994Z,5.00
2023-04-04T02:01:24.987Z,4.83
2023-04-04T02:03:54.841Z,4.90
2023-04-04T02:06:22.702Z,4.83
2023-04-04T02:08:52.558Z,4.63
2023-04-04T02:11:23.312Z,5.10
2023-04-04T02:13:51.667Z,5.23
2023-04-04T02:16:22.709Z,4.50
2023-04-04T02:18:52.053Z,5.00
2023-04-04T02:21:21.908Z,4.90
2023-04-04T02:23:49.062Z,4.90
2023-04-04T02:26:17.311Z,5.33
2023-04-04T02:28:45.330Z,5.17
2023-04-04T02:31:13.395Z,5.50
2023-04-04T02:33:40.942Z,5.13
2023-04-04T02:36:09.849Z,5.30
2023-04-04T02:38:37.283Z,5.87
2023-04-04T02:41:06.560Z,5.20
2023-04-04T02:43:35.328Z,5.23
2023-04-04T02:46:20.431Z,5.33
2023-04-04T02:48:51.818Z,5.07
2023-04-04T02:51:22.696Z,5.77
2023-04-04T02:53:50.422Z,5.40
2023-04-04T02:56:25.736Z,5.60
2023-04-04T02:58:53.235Z,5.13
2023-04-04T03:01:20.826Z,6.30
2023-04-04T03:03:48.722Z,5.77
2023-04-04T03:06:16.209Z,5.47
2023-04-04T03:08:43.940Z,5.20
2023-04-04T03:11:11.403Z,5.10
2023-04-04T03:13:41.932Z,5.70
2023-04-04T03:16:09.951Z,5.47
2023-04-04T03:18:48.705Z,5.47
2023-04-04T03:21:18.717Z,5.80
2023-04-04T03:23:46.476Z,5.50
2023-04-04T03:26:14.186Z,5.33
2023-04-04T03:28:41.853Z,5.30
2023-04-04T03:31:11.519Z,5.53
2023-04-04T03:33:43.145Z,5.37
2023-04-04T03:36:16.620Z,6.20
2023-04-04T03:38:47.811Z,5.50
2023-04-04T03:41:16.305Z,5.90
2023-04-04T03:43:43.566Z,5.97
2023-04-04T03:46:11.010Z,5.50
2023-04-04T03:48:38.423Z,5.20
2023-04-04T03:51:10.202Z,5.70
2023-04-04T03:53:39.738Z,5.23
2023-04-04T03:56:08.663Z,6.53
2023-04-04T03:58:43.976Z,5.50
2023-04-04T04:01:16.228Z,5.50
2023-04-04T04:03:46.659Z,5.10
2023-04-04T04:06:14.170Z,5.50
2023-04-04T04:08:42.864Z,5.00
2023-04-04T04:11:10.655Z,5.13
2023-04-04T04:13:38.821Z,5.50
2023-04-04T04:16:06.859Z,5.97
2023-04-04T04:18:35.783Z,5.63
2023-04-04T04:21:05.196Z,5.37
2023-04-04T04:23:34.074Z,5.13
2023-04-04T04:26:02.409Z,6.30
2023-04-04T04:28:33.333Z,5.50
2023-04-04T04:31:07.729Z,5.17
2023-04-04T04:33:41.249Z,5.77
2023-04-04T04:36:09.654Z,5.50
2023-04-04T04:38:49.388Z,5.37
2023-04-04T04:41:17.138Z,5.77
2023-04-04T04:43:49.640Z,5.83
2023-04-04T04:46:17.296Z,5.50
2023-04-04T04:48:44.827Z,6.00
2023-04-04T04:51:15.682Z,6.33
2023-04-04T04:53:48.686Z,5.20
2023-04-04T04:56:16.567Z,5.33
2023-04-04T04:58:50.987Z,6.43
2023-04-04T05:01:29.895Z,6.43
2023-04-04T05:03:59.694Z,5.63
2023-04-04T05:06:37.984Z,5.90
2023-04-04T05:09:08.519Z,5.27
2023-04-04T05:11:38.644Z,4.63
2023-04-04T05:14:08.260Z,5.80
2023-04-04T05:16:41.742Z,6.10
2023-04-04T05:19:09.531Z,5.67
2023-04-04T05:21:43.414Z,5.23
2023-04-04T05:24:17.231Z,4.90
2023-04-04T05:26:44.483Z,5.37
2023-04-04T05:29:12.064Z,7.70
2023-04-04T05:31:45.848Z,7.93
2023-04-04T05:34:18.406Z,5.80
2023-04-04T05:36:46.757Z,5.60
2023-04-04T05:39:17.884Z,5.20
2023-04-04T05:41:56.539Z,5.67
2023-04-04T05:44:25.752Z,5.00
2023-04-04T05:46:53.802Z,5.17
2023-04-04T05:49:22.176Z,5.43
2023-04-04T05:51:57.614Z,5.10
2023-04-04T05:54:28.195Z,5.77
2023-04-04T05:57:00.261Z,5.30
2023-04-04T05:59:39.112Z,4.80
2023-04-04T06:02:09.061Z,5.30
2023-04-04T06:04:41.029Z,7.80
2023-04-04T06:07:09.852Z,7.60
2023-04-04T06:09:39.841Z,5.47
2023-04-04T06:12:07.164Z,6.10
2023-04-04T06:14:34.704Z,6.20
2023-04-04T06:17:04.630Z,5.77
2023-04-04T06:19:32.207Z,5.80
2023-04-04T06:22:00.651Z,5.93
2023-04-04T06:24:29.509Z,5.23
2023-04-04T06:26:59.101Z,6.00
2023-04-04T06:29:28.251Z,6.17
2023-04-04T06:31:59.760Z,5.23
2023-04-04T06:34:36.417Z,5.00
2023-04-04T06:37:05.713Z,6.03
2023-04-04T06:39:39.314Z,5.53
2023-04-04T06:42:12.316Z,5.57
2023-04-04T06:44:46.901Z,5.60
2023-04-04T06:47:15.828Z,5.53
2023-04-04T06:49:43.488Z,5.57
2023-04-04T06:52:12.050Z,5.30
2023-04-04T06:54:39.478Z,4.57
2023-04-04T06:57:11.193Z,5.10
2023-04-04T06:59:38.710Z,4.90
2023-04-04T07:02:06.132Z,5.20
2023-04-04T07:04:35.075Z,5.00
2023-04-04T07:07:05.958Z,5.37
2023-04-04T07:09:34.584Z,4.60
2023-04-04T07:12:01.919Z,4.90
2023-04-04T07:14:29.227Z,4.80
2023-04-04T07:16:56.455Z,4.80
2023-04-04T07:19:29.057Z,4.93
2023-04-04T07:21:57.038Z,4.93
2023-04-04T07:24:24.326Z,4.70
2023-04-04T07:26:52.676Z,4.70
2023-04-04T07:29:22.008Z,4.80
2023-04-04T07:31:51.310Z,5.20
2023-04-04T07:34:20.264Z,5.33
2023-04-04T07:36:48.250Z,4.63
2023-04-04T07:39:15.785Z,4.40
2023-04-04T07:41:43.020Z,4.70
2023-04-04T07:44:10.734Z,5.30
2023-04-04T07:46:39.182Z,5.07
2023-04-04T07:49:10.973Z,4.30
2023-04-04T07:51:41.975Z,4.80
2023-04-04T07:54:11.193Z,5.27
2023-04-04T07:56:38.333Z,4.80
2023-04-04T07:59:05.623Z,4.53
2023-04-04T08:01:33.386Z,5.50
2023-04-04T08:04:01.359Z,3.73
2023-04-04T08:06:29.976Z,3.90
2023-04-04T08:08:58.769Z,3.80
2023-04-04T08:11:28.278Z,3.53
2023-04-04T08:13:55.511Z,3.97
2023-04-04T08:16:23.593Z,3.90
2023-04-04T08:18:50.808Z,4.53
2023-04-04T08:21:17.978Z,4.63
2023-04-04T08:23:47.923Z,4.90
2023-04-04T08:26:19.405Z,5.40
2023-04-04T08:29:11.770Z,4.37
2023-04-04T08:31:40.550Z,4.37
2023-04-04T08:34:09.386Z,4.17
2023-04-04T08:36:38.135Z,4.10
2023-04-04T08:39:05.640Z,4.27
2023-04-04T08:41:35.786Z,4.47
2023-04-04T08:44:04.390Z,4.30
2023-04-04T08:46:31.937Z,4.23
2023-04-04T08:49:00.390Z,4.30
2023-04-04T08:51:31.574Z,4.73
2023-04-04T08:53:59.852Z,4.10
2023-04-04T08:56:29.619Z,4.00
2023-04-04T08:58:57.013Z,4.00
2023-04-04T09:01:24.317Z,4.67
2023-04-04T09:03:52.548Z,4.57
2023-04-04T09:06:20.029Z,4.13
2023-04-04T09:08:47.945Z,3.60
2023-04-04T09:11:15.428Z,4.27
2023-04-04T09:13:45.565Z,4.03
2023-04-04T09:16:13.265Z,4.10
2023-04-04T09:18:40.422Z,3.70
2023-04-04T09:21:12.869Z,4.60
2023-04-04T09:23:42.428Z,3.70
2023-04-04T09:26:18.515Z,3.50
2023-04-04T09:28:52.718Z,3.87
2023-04-04T09:31:20.165Z,3.47
2023-04-04T09:33:50.505Z,3.60
2023-04-04T09:36:20.797Z,4.17
2023-04-04T09:38:49.706Z,4.00
2023-04-04T09:41:17.334Z,3.30
2023-04-04T09:43:45.346Z,4.40
2023-04-04T09:46:12.594Z,3.60
2023-04-04T09:48:39.788Z,3.70
2023-04-04T09:51:08.420Z,3.67
2023-04-04T09:53:37.214Z,4.10
2023-04-04T09:56:04.785Z,3.40
2023-04-04T09:58:35.910Z,3.80
2023-04-04T10:01:04.906Z,3.93
2023-04-04T10:03:34.030Z,3.80
2023-04-04T10:06:01.931Z,4.00
2023-04-04T10:08:31.056Z,4.13
2023-04-04T10:11:10.583Z,3.60
2023-04-04T10:13:44.369Z,4.00
2023-04-04T10:16:12.218Z,3.87
2023-04-04T10:18:40.152Z,3.57
2023-04-04T10:23:39.435Z,3.50
2023-04-04T10:26:06.578Z,4.33
2023-04-04T10:28:34.336Z,4.50
2023-04-04T10:31:07.213Z,4.90
2023-04-04T10:33:56.555Z,4.37
2023-04-04T10:36:25.128Z,3.90
2023-04-04T10:39:02.933Z,5.27
2023-04-04T10:41:33.186Z,3.60
2023-04-04T10:44:01.337Z,3.70
2023-04-04T10:46:31.707Z,4.57
2023-04-04T10:49:01.147Z,3.60
2023-04-04T10:51:28.588Z,3.60
2023-04-04T10:53:55.831Z,3.63
2023-04-04T10:56:23.188Z,3.67
2023-04-04T10:58:50.790Z,3.90
2023-04-04T11:01:21.086Z,3.67
2023-04-04T11:04:08.180Z,4.03
2023-04-04T11:06:54.809Z,3.90
2023-04-04T11:09:47.369Z,4.37
2023-04-04T11:12:23.408Z,3.20
2023-04-04T11:14:59.700Z,3.73
2023-04-04T11:17:45.662Z,4.30
2023-04-04T11:20:16.010Z,3.40
2023-04-04T11:22:43.733Z,3.50
2023-04-04T11:25:29.115Z,3.90
2023-04-04T11:27:59.255Z,5.03
2023-04-04T11:30:28.211Z,3.50
2023-04-04T11:33:07.069Z,3.80
2023-04-04T11:35:38.904Z,4.83
2023-04-04T11:38:12.794Z,3.60
2023-04-04T11:40:42.754Z,4.27
2023-04-04T11:43:10.851Z,3.40
2023-04-04T11:45:39.135Z,5.57
2023-04-04T11:48:07.003Z,4.27
2023-04-04T11:50:36.719Z,4.23
2023-04-04T11:53:06.119Z,3.90
2023-04-04T11:55:34.423Z,5.33
2023-04-04T11:58:13.302Z,4.00
2023-04-04T12:00:41.387Z,3.83
2023-04-04T12:03:13.609Z,3.83
2023-04-04T12:05:43.245Z,4.53
2023-04-04T12:08:12.637Z,3.80
2023-04-04T12:10:41.566Z,4.40
2023-04-04T12:13:09.727Z,4.00
2023-04-04T12:15:37.834Z,4.00
2023-04-04T12:18:07.475Z,4.20
2023-04-04T12:20:34.811Z,4.27
2023-04-04T12:23:02.058Z,4.53
2023-04-04T12:25:33.718Z,4.60
2023-04-04T12:28:02.176Z,4.37
2023-04-04T12:30:29.489Z,4.53
2023-04-04T12:32:56.983Z,4.23
2023-04-04T12:35:24.686Z,4.67
2023-04-04T12:38:07.211Z,4.60
2023-04-04T12:40:37.111Z,3.90
2023-04-04T12:43:05.405Z,4.23
2023-04-04T12:45:33.014Z,4.70
2023-04-04T12:48:00.375Z,4.93
2023-04-04T12:50:28.962Z,4.60
2023-04-04T12:53:13.398Z,3.80
2023-04-04T12:55:47.806Z,4.60
2023-04-04T12:58:18.770Z,4.53
2023-04-04T13:00:46.253Z,4.53
2023-04-04T13:03:15.481Z,5.20
2023-04-04T13:05:47.433Z,4.93
2023-04-04T13:08:15.467Z,5.43
2023-04-04T13:11:03.618Z,5.20
2023-04-04T13:13:31.592Z,4.80
2023-04-04T13:15:59.216Z,4.40
2023-04-04T13:18:26.986Z,4.30
2023-04-04T13:20:54.915Z,5.17
2023-04-04T13:23:22.737Z,5.10
2023-04-04T13:25:50.009Z,4.77
2023-04-04T13:28:17.447Z,5.70
2023-04-04T13:30:48.812Z,5.77
2023-04-04T13:33:17.022Z,4.30
2023-04-04T13:35:44.610Z,5.30
2023-04-04T13:38:12.291Z,4.67
2023-04-04T13:40:39.589Z,4.80
2023-04-04T13:43:07.153Z,5.17
2023-04-04T13:45:34.678Z,4.90
2023-04-04T13:48:02.464Z,4.70
2023-04-04T13:50:29.754Z,5.53
2023-04-04T13:52:57.009Z,5.27
2023-04-04T13:55:24.232Z,4.60
2023-04-04T13:57:51.420Z,5.13
2023-04-04T14:00:18.930Z,4.60
2023-04-04T14:02:46.548Z,4.70
2023-04-04T14:05:13.743Z,5.03
2023-04-04T14:07:41.455Z,5.17
2023-04-04T14:10:11.180Z,5.50
2023-04-04T14:12:39.139Z,5.73
2023-04-04T14:15:09.602Z,4.93
2023-04-04T14:17:37.130Z,4.47
2023-04-04T14:20:05.261Z,4.50
2023-04-04T14:22:33.561Z,5.40
2023-04-04T14:25:01.123Z,4.80
2023-04-04T14:27:28.285Z,5.40
2023-04-04T14:29:55.488Z,4.70
2023-04-04T14:32:22.753Z,4.37
2023-04-04T14:34:50.038Z,5.10
2023-04-04T14:37:17.441Z,5.37
2023-04-04T14:39:45.152Z,5.00
2023-04-04T14:42:12.334Z,5.33
2023-04-04T14:44:39.500Z,4.80
2023-04-04T14:47:06.763Z,5.57
2023-04-04T14:49:34.066Z,5.20
2023-04-04T14:52:01.473Z,5.10
2023-04-04T14:54:28.744Z,5.90
2023-04-04T14:56:56.103Z,5.73
2023-04-04T14:59:23.318Z,5.67
2023-04-04T15:01:50.763Z,5.13
2023-04-04T15:04:17.980Z,5.20
2023-04-04T15:06:45.476Z,4.97
2023-04-04T15:09:12.662Z,5.57
2023-04-04T15:11:40.389Z,4.90
2023-04-04T15:14:07.835Z,5.10
2023-04-04T15:16:35.872Z,4.87
2023-04-04T15:19:03.239Z,4.70
2023-04-04T15:21:31.593Z,5.50
2023-04-04T15:23:58.980Z,4.90
2023-04-04T15:26:26.339Z,4.90
2023-04-04T15:28:53.560Z,5.20
2023-04-04T15:31:21.001Z,5.90
2023-04-04T15:33:48.500Z,4.87
2023-04-04T15:36:15.922Z,5.20
2023-04-04T15:38:43.121Z,5.93
2023-04-04T15:41:10.652Z,5.50
2023-04-04T15:43:37.856Z,4.93
2023-04-04T15:46:06.579Z,5.93
2023-04-04T15:48:34.510Z,5.07
2023-04-04T15:51:03.253Z,5.40
2023-04-04T15:53:33.831Z,5.40
2023-04-04T15:56:01.888Z,5.40
2023-04-04T15:58:29.113Z,5.87
2023-04-04T16:00:58.017Z,6.10
2023-04-04T16:03:25.859Z,5.60
2023-04-04T16:05:53.342Z,5.00
2023-04-04T16:08:20.585Z,5.10
2023-04-04T16:10:47.850Z,5.80
2023-04-04T16:13:15.197Z,5.60
2023-04-04T16:15:42.519Z,5.60
2023-04-04T16:18:09.949Z,5.50
2023-04-04T16:20:37.283Z,4.97
2023-04-04T16:23:04.896Z,5.40
2023-04-04T16:25:32.104Z,5.30
2023-04-04T16:28:00.396Z,5.13
2023-04-04T16:30:28.455Z,4.77
2023-04-04T16:32:56.086Z,5.43
2023-04-04T16:35:24.661Z,5.30
2023-04-04T16:37:51.940Z,5.10
2023-04-04T16:40:20.819Z,5.40
2023-04-04T16:42:48.101Z,4.97
2023-04-04T16:45:15.555Z,5.17
2023-04-04T16:47:42.772Z,5.43
2023-04-04T16:50:10.306Z,5.00
2023-04-04T16:52:37.538Z,5.80
2023-04-04T16:55:05.132Z,5.23
2023-04-04T16:57:32.344Z,5.33
2023-04-04T17:00:00.561Z,5.57
2023-04-04T17:02:28.008Z,5.20
2023-04-04T17:04:55.560Z,5.97
2023-04-04T17:07:22.837Z,6.00
2023-04-04T17:09:51.433Z,5.80
2023-04-04T17:12:18.631Z,5.37
2023-04-04T17:14:46.430Z,6.30
2023-04-04T17:17:13.643Z,5.60
2023-04-04T17:19:40.880Z,5.10
2023-04-04T17:22:08.107Z,5.30
2023-04-04T17:24:36.881Z,5.77
2023-04-04T17:27:04.168Z,5.57
2023-04-04T17:29:31.725Z,5.50
2023-04-04T17:31:59.654Z,5.90
2023-04-04T17:34:28.088Z,6.30
2023-04-04T17:36:55.600Z,6.07
2023-04-04T17:39:23.195Z,6.40
2023-04-04T17:41:52.348Z,6.20
2023-04-04T17:44:20.452Z,6.07
2023-04-04T17:46:47.652Z,6.23
2023-04-04T17:49:19.461Z,6.40
2023-04-04T17:51:50.118Z,6.30
2023-04-04T17:54:17.648Z,6.20
2023-04-04T17:56:46.618Z,6.80
2023-04-04T17:59:14.968Z,6.03
2023-04-04T18:01:42.618Z,6.10
2023-04-04T18:04:09.891Z,5.97
2023-04-04T18:06:40.097Z,7.07
2023-04-04T18:09:09.187Z,7.00
2023-04-04T18:11:37.791Z,6.27
2023-04-04T18:14:06.518Z,7.00
2023-04-04T18:16:39.646Z,5.67
2023-04-04T18:19:09.328Z,6.67
2023-04-04T18:21:36.934Z,5.77
2023-04-04T18:24:07.888Z,6.00
2023-04-04T18:26:35.574Z,5.77
2023-04-04T18:29:02.927Z,6.00
2023-04-04T18:31:30.365Z,5.67
2023-04-04T18:33:57.683Z,5.50
2023-04-04T18:36:26.622Z,8.57
2023-04-04T18:38:53.813Z,8.10
2023-04-04T18:41:21.680Z,8.43
2023-04-04T18:43:49.906Z,8.43
2023-04-04T18:46:17.693Z,7.00
2023-04-04T18:48:45.394Z,6.70
2023-04-04T18:51:12.568Z,6.63
2023-04-04T18:53:39.785Z,6.83
2023-04-04T18:56:07.414Z,5.53
2023-04-04T18:58:37.053Z,6.93
2023-04-04T19:01:04.531Z,7.40
2023-04-04T19:03:37.579Z,10.30
2023-04-04T19:06:07.375Z,6.70
2023-04-04T19:08:36.614Z,7.37
2023-04-04T19:11:04.188Z,6.50
2023-04-04T19:13:31.530Z,7.23
2023-04-04T19:15:58.842Z,7.00
2023-04-04T19:18:26.158Z,6.60
2023-04-04T19:20:53.410Z,7.57
2023-04-04T19:23:24.113Z,8.00
2023-04-04T19:25:51.473Z,7.20
2023-04-04T19:28:18.822Z,7.80
2023-04-04T19:30:47.830Z,7.17
2023-04-04T19:33:21.811Z,8.40
2023-04-04T19:36:04.021Z,7.30
2023-04-04T19:38:36.321Z,8.23
2023-04-04T19:41:32.835Z,7.30
2023-04-04T19:44:00.520Z,7.43
2023-04-04T19:46:29.162Z,7.57
2023-04-04T19:48:59.236Z,7.03
2023-04-04T19:51:28.088Z,6.60
2023-04-04T19:53:56.220Z,6.50
2023-04-04T19:56:24.626Z,8.23
2023-04-04T19:58:59.545Z,8.17
2023-04-04T20:01:34.154Z,7.40
2023-04-04T20:04:11.982Z,8.03
2023-04-04T20:06:39.885Z,6.77
2023-04-04T20:09:27.545Z,8.03
2023-04-04T20:11:54.782Z,8.37
2023-04-04T20:14:22.202Z,8.03
2023-04-04T20:16:53.941Z,7.53
2023-04-04T20:19:24.536Z,8.20
2023-04-04T20:21:52.002Z,7.20
2023-04-04T20:24:19.588Z,7.60
2023-04-04T20:26:51.467Z,7.80
2023-04-04T20:29:21.726Z,8.87
2023-04-04T20:31:51.635Z,6.93
2023-04-04T20:34:42.121Z,7.43
2023-04-04T20:37:21.723Z,7.40
2023-04-04T20:39:53.489Z,7.90
2023-04-04T20:42:23.916Z,7.77
2023-04-04T20:44:51.137Z,6.30
2023-04-04T20:47:38.173Z,7.27
2023-04-04T20:50:17.942Z,6.60
2023-04-04T20:52:46.635Z,6.60
2023-04-04T20:55:14.560Z,7.83
2023-04-04T20:57:41.738Z,7.83
2023-04-04T21:00:27.898Z,7.13
2023-04-04T21:02:56.263Z,7.30
2023-04-04T21:05:27.299Z,7.63
2023-04-04T21:07:54.631Z,7.43
2023-04-04T21:10:23.715Z,8.10
2023-04-04T21:12:51.548Z,7.63
2023-04-04T21:15:33.519Z,7.77
2023-04-04T21:18:02.287Z,7.57
2023-04-04T21:20:48.120Z,8.03
2023-04-04T21:23:24.579Z,9.23
2023-04-04T21:25:52.109Z,8.90
2023-04-04T21:28:21.205Z,8.67
2023-04-04T21:30:54.285Z,7.47
2023-04-04T21:33:21.838Z,7.50
2023-04-04T21:35:50.743Z,7.90
2023-04-04T21:38:32.762Z,8.10
2023-04-04T21:41:00.316Z,8.43
2023-04-04T21:43:27.943Z,7.70
2023-04-04T21:45:56.304Z,8.27
2023-04-04T21:48:24.224Z,8.00
2023-04-04T21:50:51.657Z,8.10
2023-04-04T21:53:18.923Z,7.80
2023-04-04T21:55:46.129Z,8.23
2023-04-04T21:58:20.989Z,9.37
2023-04-04T22:00:48.602Z,8.70
2023-04-04T22:03:19.155Z,7.93
2023-04-04T22:05:48.244Z,8.17
2023-04-04T22:08:15.470Z,8.63
2023-04-04T22:10:47.343Z,7.83
2023-04-04T22:13:17.097Z,8.13
2023-04-04T22:15:46.696Z,7.80
2023-04-04T22:18:17.660Z,10.70
2023-04-04T22:20:46.102Z,8.63
2023-04-04T22:23:15.267Z,8.03
2023-04-04T22:25:42.627Z,7.80
2023-04-04T22:28:10.101Z,7.90
2023-04-04T22:30:42.409Z,8.57
2023-04-04T22:33:09.840Z,8.03
2023-04-04T22:35:37.591Z,7.67
2023-04-04T22:38:05.359Z,8.23
2023-04-04T22:40:33.451Z,8.30
2023-04-04T22:43:01.519Z,8.50
2023-04-04T22:45:29.566Z,7.93
2023-04-04T22:47:57.838Z,7.80
2023-04-04T22:50:25.424Z,8.00
2023-04-04T22:52:54.584Z,8.20
2023-04-04T22:55:23.441Z,7.40
2023-04-04T22:57:50.879Z,8.70
2023-04-04T23:00:18.806Z,7.03
2023-04-04T23:02:46.588Z,7.90
2023-04-04T23:05:15.108Z,8.00
2023-04-04T23:07:42.995Z,7.40
2023-04-04T23:10:11.813Z,7.20
2023-04-04T23:12:39.705Z,7.70
2023-04-04T23:15:08.273Z,7.93
2023-04-04T23:17:39.587Z,8.00
2023-04-04T23:20:10.510Z,7.80
2023-04-04T23:22:38.715Z,7.67
2023-04-04T23:25:07.851Z,7.93
2023-04-04T23:27:35.442Z,8.27
2023-04-04T23:30:03.873Z,7.83
2023-04-04T23:32:34.525Z,8.37
2023-04-04T23:35:01.972Z,7.00
2023-04-04T23:37:29.536Z,7.30
2023-04-04T23:39:57.170Z,8.00
2023-04-04T23:42:24.633Z,7.80
2023-04-04T23:44:52.250Z,8.20
2023-04-04T23:47:19.715Z,8.07
2023-04-04T23:49:46.992Z,8.57
2023-04-04T23:52:14.673Z,8.00
2023-04-04T23:54:42.209Z,7.57
2023-04-04T23:57:09.751Z,8.53
2023-04-04T23:59:37.181Z,8.13
